createdAt,value
2022-11-27T00:01:35.473Z,3.40
2022-11-27T00:04:04.441Z,3.40
2022-11-27T00:06:33.038Z,3.40
2022-11-27T00:09:04.004Z,3.50
2022-11-27T00:11:33.004Z,3.50
2022-11-27T00:14:01.326Z,3.50
2022-11-27T00:16:28.836Z,3.50
2022-11-27T00:18:56.776Z,3.50
2022-11-27T00:21:33.745Z,3.50
2022-11-27T00:24:03.137Z,3.50
2022-11-27T00:26:37.238Z,3.50
2022-11-27T00:29:05.192Z,3.50
2022-11-27T00:31:34.496Z,3.60
2022-11-27T00:34:08.079Z,3.50
2022-11-27T00:36:37.012Z,3.50
2022-11-27T00:39:05.491Z,3.60
2022-11-27T00:41:33.819Z,3.50
2022-11-27T00:44:03.492Z,3.60
2022-11-27T00:46:33.965Z,3.50
2022-11-27T00:49:05.567Z,3.60
2022-11-27T00:51:33.492Z,3.50
2022-11-27T00:54:02.402Z,3.60
2022-11-27T00:56:33.370Z,3.60
2022-11-27T00:59:02.184Z,3.60
2022-11-27T01:01:36.535Z,3.60
2022-11-27T01:04:07.121Z,3.60
2022-11-27T01:06:35.032Z,3.70
2022-11-27T01:09:04.281Z,3.60
2022-11-27T01:11:35.073Z,3.60
2022-11-27T01:14:06.080Z,3.70
2022-11-27T01:16:35.187Z,3.70
2022-11-27T01:19:05.249Z,3.70
2022-11-27T01:21:34.512Z,3.70
2022-11-27T01:24:03.865Z,3.70
2022-11-27T01:26:31.058Z,3.70
2022-11-27T01:28:59.071Z,3.70
2022-11-27T01:31:31.546Z,3.70
2022-11-27T01:34:01.897Z,3.70
2022-11-27T01:36:30.571Z,3.70
2022-11-27T01:38:59.049Z,3.70
2022-11-27T01:41:32.868Z,3.70
2022-11-27T01:44:24.742Z,3.70
2022-11-27T01:47:01.764Z,3.70
2022-11-27T01:49:34.524Z,3.70
2022-11-27T01:52:10.243Z,3.70
2022-11-27T01:54:48.300Z,3.70
2022-11-27T01:57:19.133Z,3.70
2022-11-27T01:59:48.744Z,3.80
2022-11-27T02:02:18.328Z,3.80
2022-11-27T02:04:45.235Z,3.90
2022-11-27T02:07:14.700Z,3.80
2022-11-27T02:09:43.185Z,3.90
2022-11-27T02:12:14.855Z,3.90
2022-11-27T02:15:11.219Z,3.80
2022-11-27T02:17:52.000Z,3.90
2022-11-27T02:21:02.778Z,3.90
2022-11-27T02:23:53.582Z,3.90
2022-11-27T02:26:50.691Z,3.90
2022-11-27T02:29:23.489Z,3.90
2022-11-27T02:32:20.254Z,3.90
2022-11-27T02:34:59.048Z,3.90
2022-11-27T02:37:50.929Z,3.90
2022-11-27T02:40:36.011Z,3.90
2022-11-27T02:43:15.819Z,3.90
2022-11-27T02:45:49.314Z,3.90
2022-11-27T02:48:19.637Z,3.90
2022-11-27T02:50:50.711Z,3.90
2022-11-27T02:53:31.295Z,3.90
2022-11-27T02:56:00.828Z,3.90
2022-11-27T02:58:29.905Z,3.90
2022-11-27T03:00:58.022Z,3.90
2022-11-27T03:03:30.788Z,4.00
2022-11-27T03:06:03.992Z,3.90
2022-11-27T03:09:03.095Z,3.90
2022-11-27T03:11:31.716Z,4.00
2022-11-27T03:14:04.939Z,4.00
2022-11-27T03:16:39.211Z,3.90
2022-11-27T03:19:23.428Z,3.90
2022-11-27T03:22:01.517Z,3.90
2022-11-27T03:24:33.025Z,4.00
2022-11-27T03:27:04.569Z,3.90
2022-11-27T03:29:50.857Z,3.90
2022-11-27T03:32:19.997Z,3.90
2022-11-27T03:34:49.366Z,4.00
2022-11-27T03:37:16.969Z,4.00
2022-11-27T03:39:44.238Z,4.00
2022-11-27T03:42:42.163Z,4.00
2022-11-27T03:45:35.042Z,4.00
2022-11-27T03:48:36.649Z,4.00
2022-11-27T03:51:26.313Z,4.00
2022-11-27T03:54:14.446Z,4.00
2022-11-27T03:56:46.988Z,4.00
2022-11-27T03:59:20.336Z,4.00
2022-11-27T04:01:48.700Z,4.00
2022-11-27T04:04:15.953Z,4.00
2022-11-27T04:06:42.886Z,4.00
2022-11-27T04:09:09.941Z,4.00
2022-11-27T04:11:38.023Z,4.00
2022-11-27T04:14:05.924Z,4.00
2022-11-27T04:16:32.833Z,4.00
2022-11-27T04:18:59.797Z,4.00
2022-11-27T04:21:28.012Z,3.90
2022-11-27T04:23:56.308Z,3.90
2022-11-27T04:26:24.687Z,3.90
2022-11-27T04:28:51.571Z,3.90
2022-11-27T04:31:19.325Z,3.90
2022-11-27T04:33:46.943Z,3.90
2022-11-27T04:36:13.853Z,3.80
2022-11-27T04:38:42.501Z,3.90
2022-11-27T04:41:10.761Z,3.80
2022-11-27T04:43:39.823Z,3.80
2022-11-27T04:46:06.728Z,3.80
2022-11-27T04:48:33.740Z,3.90
2022-11-27T04:51:01.285Z,3.90
2022-11-27T04:53:28.202Z,3.90
2022-11-27T04:55:55.728Z,3.90
2022-11-27T04:58:22.620Z,3.90
2022-11-27T05:00:50.268Z,3.80
2022-11-27T05:03:19.093Z,3.80
2022-11-27T05:05:55.380Z,3.90
2022-11-27T05:08:26.198Z,3.90
2022-11-27T05:11:19.446Z,3.90
2022-11-27T05:13:47.485Z,3.90
2022-11-27T05:16:14.347Z,3.80
2022-11-27T05:18:41.974Z,3.90
2022-11-27T05:21:09.503Z,3.90
2022-11-27T05:23:36.406Z,3.90
2022-11-27T05:26:04.044Z,3.90
2022-11-27T05:28:30.946Z,3.80
2022-11-27T05:30:59.712Z,3.80
2022-11-27T05:33:26.610Z,3.80
2022-11-27T05:35:54.284Z,3.90
2022-11-27T05:38:21.933Z,3.80
2022-11-27T05:40:50.377Z,3.80
2022-11-27T05:43:17.208Z,3.80
2022-11-27T05:45:47.276Z,3.80
2022-11-27T05:48:15.765Z,3.80
2022-11-27T05:50:42.607Z,3.80
2022-11-27T05:53:09.608Z,3.80
2022-11-27T05:55:37.187Z,3.80
2022-11-27T05:58:05.418Z,3.80
2022-11-27T06:00:32.955Z,3.80
2022-11-27T06:03:01.699Z,3.80
2022-11-27T06:05:29.487Z,3.70
2022-11-27T06:07:59.017Z,3.80
2022-11-27T06:10:27.418Z,3.80
2022-11-27T06:12:55.571Z,3.80
2022-11-27T06:15:22.487Z,3.80
2022-11-27T06:17:51.068Z,3.80
2022-11-27T06:20:21.044Z,3.80
2022-11-27T06:22:48.764Z,3.80
2022-11-27T06:25:16.573Z,3.80
2022-11-27T06:27:43.654Z,3.80
2022-11-27T06:30:11.788Z,3.80
2022-11-27T06:32:39.339Z,3.80
2022-11-27T06:35:07.682Z,3.80
2022-11-27T06:37:37.143Z,3.90
2022-11-27T06:40:06.903Z,3.90
2022-11-27T06:42:34.472Z,3.90
2022-11-27T06:45:02.028Z,3.90
2022-11-27T06:47:29.566Z,3.90
2022-11-27T06:49:57.344Z,3.90
2022-11-27T06:52:24.175Z,3.90
2022-11-27T06:54:51.077Z,3.90
2022-11-27T06:57:17.939Z,3.90
2022-11-27T06:59:45.500Z,3.90
2022-11-27T07:02:16.075Z,4.00
2022-11-27T07:04:45.894Z,4.00
2022-11-27T07:07:13.630Z,3.90
2022-11-27T07:09:42.152Z,3.90
2022-11-27T07:12:09.433Z,3.90
2022-11-27T07:14:36.339Z,3.90
2022-11-27T07:17:03.298Z,3.90
2022-11-27T07:19:30.148Z,3.90
2022-11-27T07:21:57.056Z,3.90
2022-11-27T07:24:24.043Z,3.90
2022-11-27T07:26:50.910Z,3.90
2022-11-27T07:29:18.472Z,3.90
2022-11-27T07:31:51.264Z,3.90
2022-11-27T07:34:21.890Z,4.00
2022-11-27T07:36:49.666Z,3.90
2022-11-27T07:39:28.573Z,3.90
2022-11-27T07:42:23.158Z,4.00
2022-11-27T07:44:49.371Z,4.00
2022-11-27T07:47:17.004Z,4.00
2022-11-27T07:49:43.868Z,4.00
2022-11-27T07:52:11.404Z,4.00
2022-11-27T07:54:40.673Z,4.00
2022-11-27T07:57:08.990Z,4.00
2022-11-27T07:59:37.208Z,4.00
2022-11-27T08:02:04.988Z,4.00
2022-11-27T08:04:32.605Z,4.10
2022-11-27T08:07:03.101Z,4.10
2022-11-27T08:09:31.511Z,4.10
2022-11-27T08:11:59.067Z,4.10
2022-11-27T08:14:26.830Z,4.10
2022-11-27T08:16:55.860Z,4.10
2022-11-27T08:19:23.623Z,4.10
2022-11-27T08:21:50.738Z,4.30
2022-11-27T08:24:21.592Z,4.30
2022-11-27T08:26:50.045Z,4.30
2022-11-27T08:29:18.402Z,4.20
2022-11-27T08:31:48.792Z,4.30
2022-11-27T08:34:16.552Z,4.20
2022-11-27T08:36:44.163Z,4.20
2022-11-27T08:39:11.720Z,4.20
2022-11-27T08:41:39.283Z,4.30
2022-11-27T08:44:09.550Z,4.20
2022-11-27T08:46:38.945Z,4.20
2022-11-27T08:49:07.326Z,4.20
2022-11-27T08:51:36.560Z,4.20
2022-11-27T08:54:04.333Z,4.20
2022-11-27T08:56:34.637Z,4.30
2022-11-27T08:59:02.491Z,4.30
2022-11-27T09:01:32.065Z,4.30
2022-11-27T09:04:00.196Z,4.30
2022-11-27T09:06:30.864Z,4.30
2022-11-27T09:09:04.422Z,4.30
2022-11-27T09:11:32.559Z,4.40
2022-11-27T09:14:03.032Z,4.40
2022-11-27T09:16:30.952Z,4.40
2022-11-27T09:18:58.604Z,4.40
2022-11-27T09:21:28.504Z,4.40
2022-11-27T09:23:56.320Z,4.50
2022-11-27T09:26:28.458Z,4.50
2022-11-27T09:28:58.759Z,4.50
2022-11-27T09:31:27.286Z,4.50
2022-11-27T09:33:55.456Z,4.50
2022-11-27T09:36:24.830Z,4.50
2022-11-27T09:38:52.520Z,4.50
2022-11-27T09:41:46.589Z,4.50
2022-11-27T09:44:24.368Z,4.50
2022-11-27T09:46:52.400Z,4.50
2022-11-27T09:49:23.334Z,4.60
2022-11-27T09:52:00.261Z,4.60
2022-11-27T09:54:30.806Z,4.70
2022-11-27T09:56:59.337Z,4.60
2022-11-27T09:59:41.274Z,4.60
2022-11-27T10:02:17.038Z,4.70
2022-11-27T10:05:06.250Z,4.70
2022-11-27T10:07:53.757Z,4.70
2022-11-27T10:10:31.813Z,4.70
2022-11-27T10:13:07.711Z,4.80
2022-11-27T10:16:01.104Z,4.80
2022-11-27T10:18:59.281Z,4.80
2022-11-27T10:21:35.720Z,4.80
2022-11-27T10:24:24.798Z,4.80
2022-11-27T10:26:58.391Z,4.80
2022-11-27T10:29:36.765Z,4.80
2022-11-27T10:32:06.742Z,4.80
2022-11-27T10:34:52.358Z,4.80
2022-11-27T10:37:25.100Z,4.80
2022-11-27T10:40:06.656Z,4.70
2022-11-27T10:42:42.283Z,4.70
2022-11-27T10:45:40.207Z,4.80
2022-11-27T10:48:12.464Z,4.80
2022-11-27T10:50:41.755Z,4.80
2022-11-27T10:53:16.236Z,4.80
2022-11-27T10:55:52.631Z,4.80
2022-11-27T10:58:42.324Z,4.80
2022-11-27T11:01:13.550Z,4.80
2022-11-27T11:03:42.038Z,4.80
2022-11-27T11:06:27.128Z,4.90
2022-11-27T11:09:03.785Z,4.80
2022-11-27T11:11:33.513Z,4.80
2022-11-27T11:14:01.776Z,4.80
2022-11-27T11:16:35.381Z,4.90
2022-11-27T11:19:06.308Z,4.90
2022-11-27T11:21:39.235Z,4.90
2022-11-27T11:24:14.679Z,4.90
2022-11-27T11:26:59.613Z,4.90
2022-11-27T11:29:41.993Z,4.90
2022-11-27T11:32:23.820Z,4.90
2022-11-27T11:35:03.052Z,4.90
2022-11-27T11:37:36.489Z,4.90
2022-11-27T11:40:14.665Z,4.90
2022-11-27T11:43:02.571Z,4.90
2022-11-27T11:45:34.537Z,4.90
2022-11-27T11:48:16.443Z,4.90
2022-11-27T11:50:50.868Z,4.90
2022-11-27T11:53:30.191Z,4.90
2022-11-27T11:56:11.519Z,4.80
2022-11-27T11:59:02.679Z,4.80
2022-11-27T12:01:58.964Z,4.80
2022-11-27T12:04:29.569Z,4.80
2022-11-27T12:07:22.317Z,4.80
2022-11-27T12:10:16.649Z,4.80
2022-11-27T12:13:09.637Z,4.80
2022-11-27T12:16:25.523Z,4.80
2022-11-27T12:19:14.704Z,4.80
2022-11-27T12:21:55.836Z,4.80
2022-11-27T12:24:32.043Z,4.80
2022-11-27T12:27:09.447Z,4.80
2022-11-27T12:29:58.282Z,4.80
2022-11-27T12:32:43.745Z,4.70
2022-11-27T12:35:41.380Z,4.80
2022-11-27T12:38:25.434Z,4.80
2022-11-27T12:41:19.597Z,4.80
2022-11-27T12:43:52.234Z,4.80
2022-11-27T12:46:28.630Z,4.80
2022-11-27T12:49:13.619Z,4.70
2022-11-27T12:52:01.374Z,4.80
2022-11-27T12:54:45.784Z,4.80
2022-11-27T12:57:31.740Z,4.80
2022-11-27T13:00:06.267Z,4.70
2022-11-27T13:02:49.668Z,4.80
2022-11-27T13:05:26.619Z,4.80
2022-11-27T13:08:00.751Z,4.80
2022-11-27T13:10:39.444Z,4.80
2022-11-27T13:13:34.228Z,4.80
2022-11-27T13:16:04.861Z,4.80
2022-11-27T13:18:41.240Z,4.80
2022-11-27T13:21:20.273Z,4.80
2022-11-27T13:23:47.143Z,4.80
2022-11-27T13:26:26.503Z,4.80
2022-11-27T13:29:00.332Z,4.80
2022-11-27T13:31:32.509Z,4.80
2022-11-27T13:34:09.447Z,4.80
2022-11-27T13:36:40.647Z,4.80
2022-11-27T13:39:24.905Z,4.90
2022-11-27T13:42:08.881Z,4.80
2022-11-27T13:44:43.503Z,4.80
2022-11-27T13:47:15.662Z,4.80
2022-11-27T13:49:43.534Z,4.70
2022-11-27T13:52:18.106Z,4.70
2022-11-27T13:55:00.267Z,4.70
2022-11-27T13:57:30.199Z,4.70
2022-11-27T14:00:07.957Z,4.70
2022-11-27T14:02:51.754Z,4.70
2022-11-27T14:05:22.248Z,4.70
2022-11-27T14:07:53.727Z,4.70
2022-11-27T14:10:28.568Z,4.70
2022-11-27T14:13:07.109Z,4.70
2022-11-27T14:15:38.785Z,4.70
2022-11-27T14:18:19.753Z,4.70
2022-11-27T14:21:02.675Z,4.70
2022-11-27T14:23:51.668Z,4.70
2022-11-27T14:26:22.858Z,4.70
2022-11-27T14:28:55.989Z,4.70
2022-11-27T14:31:34.162Z,4.70
2022-11-27T14:34:20.885Z,4.70
2022-11-27T14:36:52.926Z,4.70
2022-11-27T14:39:34.569Z,4.70
2022-11-27T14:42:03.256Z,4.60
2022-11-27T14:44:32.378Z,4.60
2022-11-27T14:47:03.989Z,4.60
2022-11-27T14:49:33.643Z,4.60
2022-11-27T14:52:07.379Z,4.50
2022-11-27T14:54:39.250Z,4.50
2022-11-27T14:57:11.979Z,4.50
2022-11-27T14:59:40.627Z,4.50
2022-11-27T15:02:11.610Z,4.60
2022-11-27T15:04:42.591Z,4.60
2022-11-27T15:07:25.120Z,4.60
2022-11-27T15:09:55.624Z,4.50
2022-11-27T15:12:33.633Z,4.50
2022-11-27T15:15:19.016Z,4.50
2022-11-27T15:17:51.599Z,4.50
2022-11-27T15:20:39.589Z,4.50
2022-11-27T15:23:18.112Z,4.50
2022-11-27T15:25:50.142Z,4.40
2022-11-27T15:28:33.213Z,4.40
2022-11-27T15:31:00.461Z,4.40
2022-11-27T15:33:30.755Z,4.30
2022-11-27T15:36:15.872Z,4.30
2022-11-27T15:38:45.537Z,4.40
2022-11-27T15:41:27.829Z,4.30
2022-11-27T15:43:57.416Z,4.30
2022-11-27T15:46:32.379Z,4.30
2022-11-27T15:49:00.026Z,4.30
2022-11-27T15:51:27.614Z,4.20
2022-11-27T15:53:56.620Z,4.30
2022-11-27T15:56:25.388Z,4.20
2022-11-27T15:58:53.658Z,4.30
2022-11-27T16:01:23.035Z,4.20
2022-11-27T16:03:51.618Z,4.20
2022-11-27T16:06:20.869Z,4.20
2022-11-27T16:08:55.184Z,4.20
2022-11-27T16:11:24.023Z,4.20
2022-11-27T16:13:52.059Z,4.20
2022-11-27T16:16:20.118Z,4.20
2022-11-27T16:18:48.677Z,4.20
2022-11-27T16:21:17.645Z,4.20
2022-11-27T16:23:45.264Z,4.20
2022-11-27T16:26:13.455Z,4.20
2022-11-27T16:28:41.503Z,4.20
2022-11-27T16:31:12.151Z,4.20
2022-11-27T16:33:41.249Z,4.20
2022-11-27T16:36:14.366Z,4.20
2022-11-27T16:38:43.536Z,4.30
2022-11-27T16:41:15.953Z,4.30
2022-11-27T16:43:47.093Z,4.30
2022-11-27T16:46:16.157Z,4.30
2022-11-27T16:48:44.878Z,4.40
2022-11-27T16:51:16.811Z,4.40
2022-11-27T16:53:47.271Z,4.40
2022-11-27T16:56:18.033Z,4.40
2022-11-27T16:58:47.619Z,4.40
2022-11-27T17:01:18.655Z,4.40
2022-11-27T17:03:46.424Z,4.50
2022-11-27T17:06:28.413Z,4.50
2022-11-27T17:08:57.593Z,4.50
2022-11-27T17:11:28.928Z,4.40
2022-11-27T17:13:59.227Z,4.50
2022-11-27T17:16:29.311Z,4.50
2022-11-27T17:18:57.699Z,4.50
2022-11-27T17:21:28.397Z,4.50
2022-11-27T17:23:59.036Z,4.50
2022-11-27T17:26:28.240Z,4.50
2022-11-27T17:28:56.488Z,4.50
2022-11-27T17:31:26.917Z,4.50
2022-11-27T17:33:56.755Z,4.50
2022-11-27T17:36:26.287Z,4.50
2022-11-27T17:38:55.774Z,4.50
2022-11-27T17:41:23.372Z,4.50
2022-11-27T17:43:51.805Z,4.50
2022-11-27T17:46:23.551Z,4.50
2022-11-27T17:48:51.132Z,4.40
2022-11-27T17:51:19.278Z,4.50
2022-11-27T17:53:48.458Z,4.50
2022-11-27T17:56:17.769Z,4.50
2022-11-27T17:58:47.531Z,4.50
2022-11-27T18:01:18.653Z,4.50
2022-11-27T18:03:46.784Z,4.50
2022-11-27T18:06:14.909Z,4.50
2022-11-27T18:08:44.743Z,4.50
2022-11-27T18:11:18.628Z,4.50
2022-11-27T18:13:45.873Z,4.50
2022-11-27T18:16:17.399Z,4.60
2022-11-27T18:18:46.540Z,4.60
2022-11-27T18:21:18.887Z,4.60
2022-11-27T18:24:20.793Z,4.50
2022-11-27T18:27:06.607Z,4.50
2022-11-27T18:29:25.143Z,4.50
2022-11-27T18:31:53.477Z,4.40
2022-11-27T18:34:22.223Z,4.40
2022-11-27T18:36:51.012Z,4.40
2022-11-27T18:39:18.183Z,4.40
2022-11-27T18:41:46.551Z,4.30
2022-11-27T18:44:14.053Z,4.30
2022-11-27T18:46:40.939Z,4.30
2022-11-27T18:49:09.335Z,4.30
2022-11-27T18:51:37.552Z,4.40
2022-11-27T18:54:07.044Z,4.40
2022-11-27T18:56:34.581Z,4.40
2022-11-27T18:59:04.348Z,4.40
2022-11-27T19:01:38.150Z,4.50
2022-11-27T19:04:10.653Z,4.50
2022-11-27T19:06:39.777Z,4.50
2022-11-27T19:09:07.919Z,4.50
2022-11-27T19:11:35.970Z,4.50
2022-11-27T19:14:04.001Z,4.50
2022-11-27T19:16:33.254Z,4.60
2022-11-27T19:19:05.029Z,4.60
2022-11-27T19:21:34.470Z,4.60
2022-11-27T19:24:02.922Z,4.60
2022-11-27T19:26:32.884Z,4.70
2022-11-27T19:29:05.516Z,4.70
2022-11-27T19:31:36.968Z,4.70
2022-11-27T19:34:06.672Z,4.70
2022-11-27T19:36:36.077Z,4.70
2022-11-27T19:39:14.427Z,4.70
2022-11-27T19:41:43.399Z,4.70
2022-11-27T19:44:13.329Z,4.70
2022-11-27T19:46:41.684Z,4.80
2022-11-27T19:49:16.523Z,4.70
2022-11-27T19:51:45.589Z,4.70
2022-11-27T19:54:14.187Z,4.80
2022-11-27T19:56:43.299Z,4.80
2022-11-27T19:59:12.342Z,4.80
2022-11-27T20:01:40.681Z,4.70
2022-11-27T20:04:12.487Z,4.70
2022-11-27T20:06:41.401Z,4.70
2022-11-27T20:09:11.193Z,4.70
2022-11-27T20:11:39.007Z,4.70
2022-11-27T20:14:06.753Z,4.70
2022-11-27T20:16:36.332Z,4.70
2022-11-27T20:19:06.075Z,4.70
2022-11-27T20:21:33.948Z,4.70
2022-11-27T20:24:02.037Z,4.70
2022-11-27T20:26:30.480Z,4.70
2022-11-27T20:28:58.891Z,4.70
2022-11-27T20:31:29.865Z,4.70
2022-11-27T20:34:00.748Z,4.60
2022-11-27T20:36:30.158Z,4.70
2022-11-27T20:39:00.707Z,4.60
2022-11-27T20:41:30.076Z,4.70
2022-11-27T20:44:01.112Z,4.80
2022-11-27T20:46:28.963Z,4.70
2022-11-27T20:48:57.057Z,4.80
2022-11-27T20:51:30.110Z,4.80
2022-11-27T20:53:59.521Z,4.80
2022-11-27T20:56:28.344Z,4.80
2022-11-27T20:58:56.084Z,4.80
2022-11-27T21:01:29.821Z,4.80
2022-11-27T21:03:58.907Z,4.80
2022-11-27T21:06:30.088Z,4.80
2022-11-27T21:09:01.626Z,4.80
2022-11-27T21:11:30.967Z,4.80
2022-11-27T21:14:04.505Z,4.80
2022-11-27T21:16:34.494Z,4.90
2022-11-27T21:19:06.341Z,4.90
2022-11-27T21:21:34.522Z,4.90
2022-11-27T21:24:01.472Z,4.90
2022-11-27T21:26:29.817Z,5.00
2022-11-27T21:28:58.178Z,5.00
2022-11-27T21:31:28.004Z,5.00
2022-11-27T21:34:00.269Z,5.00
2022-11-27T21:36:31.322Z,5.10
2022-11-27T21:39:00.500Z,5.10
2022-11-27T21:41:29.399Z,5.00
2022-11-27T21:44:00.227Z,5.00
2022-11-27T21:46:28.229Z,5.00
2022-11-27T21:49:01.523Z,5.00
2022-11-27T21:51:30.040Z,5.00
2022-11-27T21:53:58.901Z,5.00
2022-11-27T21:56:29.689Z,5.00
2022-11-27T21:58:56.552Z,5.00
2022-11-27T22:01:25.143Z,5.00
2022-11-27T22:03:54.652Z,5.00
2022-11-27T22:06:24.800Z,5.00
2022-11-27T22:08:52.137Z,5.00
2022-11-27T22:11:23.106Z,5.00
2022-11-27T22:13:50.696Z,5.10
2022-11-27T22:16:21.023Z,5.00
2022-11-27T22:18:49.162Z,5.10
2022-11-27T22:21:17.687Z,5.10
2022-11-27T22:23:45.202Z,5.10
2022-11-27T22:26:18.376Z,5.10
2022-11-27T22:28:46.140Z,5.10
2022-11-27T22:31:22.785Z,5.10
2022-11-27T22:33:50.331Z,5.10
2022-11-27T22:36:25.881Z,5.10
2022-11-27T22:38:55.239Z,5.10
2022-11-27T22:41:24.979Z,5.00
2022-11-27T22:43:54.014Z,5.00
2022-11-27T22:46:27.643Z,5.00
2022-11-27T22:48:56.011Z,5.00
2022-11-27T22:51:24.813Z,5.00
2022-11-27T22:53:52.846Z,4.90
2022-11-27T22:56:21.891Z,4.80
2022-11-27T22:58:58.220Z,4.90
2022-11-27T23:01:34.488Z,4.90
2022-11-27T23:04:02.606Z,4.90
2022-11-27T23:06:29.685Z,4.90
2022-11-27T23:08:58.046Z,4.90
2022-11-27T23:11:29.228Z,4.90
2022-11-27T23:13:57.933Z,4.90
2022-11-27T23:16:25.865Z,4.90
2022-11-27T23:18:52.805Z,4.90
2022-11-27T23:21:22.733Z,4.90
2022-11-27T23:23:49.916Z,4.90
2022-11-27T23:26:19.849Z,4.90
2022-11-27T23:28:49.047Z,4.90
2022-11-27T23:31:29.849Z,4.90
2022-11-27T23:33:59.291Z,4.90
2022-11-27T23:36:27.231Z,5.00
2022-11-27T23:38:55.178Z,5.00
2022-11-27T23:41:24.916Z,4.90
2022-11-27T23:43:54.019Z,5.00
2022-11-27T23:46:26.330Z,4.90
2022-11-27T23:48:59.673Z,4.90
2022-11-27T23:51:30.285Z,4.90
2022-11-27T23:53:58.576Z,4.90
2022-11-27T23:56:30.211Z,4.90
2022-11-27T23:59:00.037Z,4.90
